createdAt,value
2022-08-16T00:32:12.818Z,26.52
2022-08-16T01:05:46.758Z,25.87
2022-08-16T01:08:36.071Z,25.89
2022-08-16T01:11:53.617Z,25.90
2022-08-16T01:16:20.113Z,25.86
2022-08-16T01:19:17.471Z,25.77
2022-08-16T01:22:49.496Z,25.78
2022-08-16T01:26:00.158Z,25.81
2022-08-16T01:28:47.304Z,25.80
2022-08-16T01:31:45.981Z,25.77
2022-08-16T01:34:47.004Z,25.72
2022-08-16T01:40:43.523Z,25.63
2022-08-16T01:46:45.522Z,25.57
2022-08-16T01:52:27.966Z,25.54
2022-08-16T01:55:55.320Z,25.48
2022-08-16T02:03:19.421Z,25.29
2022-08-16T02:05:53.466Z,25.22
2022-08-16T02:11:53.210Z,25.14
2022-08-16T02:14:26.675Z,25.11
2022-08-16T02:20:45.664Z,24.93
2022-08-16T02:23:50.921Z,24.82
2022-08-16T02:30:50.833Z,24.59
2022-08-16T02:33:50.642Z,24.49
2022-08-16T02:36:47.815Z,24.39
2022-08-16T02:39:46.343Z,24.33
2022-08-16T02:42:49.767Z,24.27
2022-08-16T02:45:49.381Z,24.22
2022-08-16T02:51:10.988Z,24.09
2022-08-16T02:53:52.867Z,24.05
2022-08-16T02:56:53.900Z,23.96
2022-08-16T02:59:50.057Z,23.88
2022-08-16T03:02:55.813Z,23.79
2022-08-16T03:08:52.548Z,23.59
2022-08-16T03:14:51.877Z,23.37
2022-08-16T03:17:53.070Z,23.23
2022-08-16T03:20:21.970Z,23.13
2022-08-16T03:36:50.859Z,22.92
2022-08-16T03:39:56.225Z,22.88
2022-08-16T03:42:25.428Z,22.83
2022-08-16T03:45:03.474Z,22.79
2022-08-16T03:47:58.247Z,22.77
2022-08-16T03:51:00.176Z,22.72
2022-08-16T03:54:01.411Z,22.69
2022-08-16T03:56:56.853Z,22.65
2022-08-16T04:03:52.868Z,22.45
2022-08-16T04:06:51.153Z,22.39
2022-08-16T04:12:53.764Z,22.26
2022-08-16T04:15:23.884Z,22.18
2022-08-16T04:17:55.870Z,22.13
2022-08-16T04:20:55.157Z,22.08
2022-08-16T04:26:22.648Z,22.00
2022-08-16T04:31:56.698Z,21.99
2022-08-16T04:35:52.406Z,21.94
2022-08-16T04:38:55.601Z,21.87
2022-08-16T04:41:32.794Z,21.83
2022-08-16T04:44:32.726Z,21.81
2022-08-16T04:47:56.215Z,21.76
2022-08-16T04:50:30.425Z,21.70
2022-08-16T04:55:53.474Z,21.68
2022-08-16T04:58:57.726Z,21.64
2022-08-16T05:01:59.128Z,21.62
2022-08-16T05:04:52.001Z,21.62
2022-08-16T05:10:26.708Z,21.48
2022-08-16T05:12:55.033Z,21.41
2022-08-16T05:15:57.487Z,21.41
2022-08-16T05:18:27.734Z,21.36
2022-08-16T05:21:01.265Z,21.33
2022-08-16T05:26:53.798Z,21.18
2022-08-16T05:29:25.059Z,21.14
2022-08-16T05:32:32.883Z,21.12
2022-08-16T05:35:24.560Z,21.10
2022-08-16T05:40:23.998Z,21.01
2022-08-16T05:42:55.256Z,20.97
2022-08-16T05:45:24.120Z,20.97
2022-08-16T05:47:59.663Z,20.92
2022-08-16T05:53:25.618Z,20.84
2022-08-16T05:55:55.068Z,20.81
2022-08-16T05:58:33.101Z,20.79
2022-08-16T06:03:55.660Z,20.70
2022-08-16T06:06:28.117Z,20.64
2022-08-16T06:08:57.510Z,20.63
2022-08-16T06:11:25.788Z,20.59
2022-08-16T06:13:55.462Z,20.54
2022-08-16T06:16:27.053Z,20.51
2022-08-16T06:18:55.455Z,20.48
2022-08-16T06:21:27.228Z,20.44
2022-08-16T06:24:54.410Z,20.42
2022-08-16T06:27:25.631Z,20.42
2022-08-16T06:30:28.873Z,20.38
2022-08-16T06:32:57.842Z,20.29
2022-08-16T06:35:59.956Z,20.25
2022-08-16T06:38:34.077Z,20.16
2022-08-16T06:41:27.334Z,20.11
2022-08-16T06:43:57.334Z,20.05
2022-08-16T06:46:38.650Z,19.99
2022-08-16T06:49:39.698Z,19.93
2022-08-16T06:53:00.596Z,19.84
2022-08-16T06:58:56.316Z,19.66
2022-08-16T07:01:57.993Z,19.60
2022-08-16T07:10:57.545Z,19.45
2022-08-16T07:20:03.693Z,19.30
2022-08-16T07:22:58.678Z,19.22
2022-08-16T07:25:55.060Z,19.19
2022-08-16T07:37:12.037Z,19.13
2022-08-16T07:41:00.102Z,19.11
2022-08-16T07:43:57.344Z,19.07
2022-08-16T07:49:57.907Z,19.03
2022-08-16T07:52:57.086Z,18.99
2022-08-16T07:55:28.537Z,18.93
2022-08-16T07:58:58.686Z,18.91
2022-08-16T08:02:04.500Z,18.84
2022-08-16T08:04:55.255Z,18.80
2022-08-16T08:10:11.025Z,18.74
2022-08-16T08:13:05.709Z,18.74
2022-08-16T08:16:05.147Z,18.81
2022-08-16T08:19:01.022Z,18.83
2022-08-16T08:22:00.972Z,18.75
2022-08-16T08:24:59.100Z,18.69
2022-08-16T08:36:56.981Z,18.63
2022-08-16T08:39:28.159Z,18.61
2022-08-16T08:41:58.969Z,18.55
2022-08-16T08:50:32.047Z,18.58
2022-08-16T08:53:02.250Z,18.56
2022-08-16T08:55:59.870Z,18.59
2022-08-16T09:01:42.471Z,18.53
2022-08-16T09:08:01.471Z,18.47
2022-08-16T09:10:58.850Z,18.41
2022-08-16T09:13:58.605Z,18.38
2022-08-16T09:17:02.476Z,18.33
2022-08-16T09:23:00.662Z,18.33
2022-08-16T09:26:00.516Z,18.29
2022-08-16T09:40:00.539Z,18.20
2022-08-16T09:43:00.246Z,18.19
2022-08-16T09:45:29.690Z,18.12
2022-08-16T09:48:01.248Z,18.12
2022-08-16T09:51:00.674Z,18.15
2022-08-16T09:54:01.897Z,18.13
2022-08-16T09:56:35.726Z,18.14
2022-08-16T09:59:08.447Z,18.11
2022-08-16T10:02:26.640Z,18.11
2022-08-16T10:05:01.516Z,18.05
2022-08-16T10:07:38.387Z,18.01
2022-08-16T10:14:58.875Z,18.04
2022-08-16T10:19:00.429Z,18.00
2022-08-16T10:21:00.995Z,17.96
2022-08-16T10:23:59.942Z,17.91
2022-08-16T10:30:01.108Z,17.92
2022-08-16T10:39:59.471Z,17.81
2022-08-16T10:46:01.321Z,17.81
2022-08-16T10:48:58.599Z,17.81
2022-08-16T10:51:34.282Z,17.77
2022-08-16T10:58:11.481Z,17.81
2022-08-16T11:00:59.099Z,17.81
2022-08-16T11:03:42.284Z,17.74
2022-08-16T11:06:19.026Z,17.69
2022-08-16T11:12:13.913Z,17.71
2022-08-16T11:15:30.033Z,17.70
2022-08-16T11:21:00.534Z,17.70
2022-08-16T11:23:30.397Z,17.70
2022-08-16T11:26:10.435Z,17.75
2022-08-16T11:29:16.021Z,17.71
2022-08-16T11:32:07.983Z,17.65
2022-08-16T11:35:15.997Z,17.61
2022-08-16T11:38:47.315Z,17.64
2022-08-16T11:41:08.055Z,17.62
2022-08-16T11:44:00.338Z,17.58
2022-08-16T11:46:44.879Z,17.57
2022-08-16T11:52:02.429Z,17.64
2022-08-16T11:54:35.769Z,17.63
2022-08-16T11:57:09.438Z,17.58
2022-08-16T12:00:01.437Z,17.62
2022-08-16T12:02:31.538Z,17.66
2022-08-16T12:05:01.423Z,17.74
2022-08-16T12:07:31.605Z,17.78
2022-08-16T12:10:02.646Z,17.82
2022-08-16T12:12:32.741Z,17.77
2022-08-16T12:15:04.688Z,17.69
2022-08-16T12:17:33.888Z,17.62
2022-08-16T12:20:05.010Z,17.54
2022-08-16T12:22:39.084Z,17.50
2022-08-16T12:25:10.230Z,17.41
2022-08-16T12:27:42.764Z,17.29
2022-08-16T12:30:21.472Z,17.19
2022-08-16T12:33:06.633Z,17.10
2022-08-16T12:36:05.171Z,17.06
2022-08-16T12:38:48.095Z,17.04
2022-08-16T12:41:28.237Z,17.00
2022-08-16T12:44:00.958Z,16.92
2022-08-16T12:46:31.368Z,16.87
2022-08-16T12:49:02.767Z,16.86
2022-08-16T12:51:58.502Z,16.88
2022-08-16T12:54:27.742Z,16.88
2022-08-16T12:56:57.416Z,16.96
2022-08-16T12:59:26.490Z,16.98
2022-08-16T13:02:02.175Z,16.96
2022-08-16T13:04:33.226Z,16.97
2022-08-16T13:09:32.700Z,16.93
2022-08-16T13:12:24.957Z,16.87
2022-08-16T13:14:54.849Z,16.78
2022-08-16T13:17:32.965Z,16.70
2022-08-16T13:20:08.547Z,16.65
2022-08-16T13:25:35.111Z,16.67
2022-08-16T13:28:04.771Z,16.71
2022-08-16T13:30:41.758Z,16.84
2022-08-16T13:33:16.992Z,16.86
2022-08-16T13:35:55.632Z,16.98
2022-08-16T13:38:37.294Z,17.04
2022-08-16T13:44:04.413Z,16.89
2022-08-16T13:46:39.147Z,16.96
2022-08-16T13:49:17.258Z,16.87
2022-08-16T13:51:52.060Z,16.79
2022-08-16T13:55:03.646Z,16.86
2022-08-16T13:57:53.355Z,16.96
2022-08-16T14:03:34.344Z,17.12
2022-08-16T14:06:05.844Z,17.04
2022-08-16T14:08:34.155Z,17.06
2022-08-16T14:11:07.021Z,17.15
2022-08-16T14:13:43.011Z,17.21
2022-08-16T14:16:33.944Z,17.20
2022-08-16T14:19:03.976Z,17.26
2022-08-16T14:21:34.864Z,17.36
2022-08-16T14:24:12.813Z,17.48
2022-08-16T14:26:55.683Z,17.60
2022-08-16T14:29:31.982Z,17.70
2022-08-16T14:32:09.634Z,17.78
2022-08-16T14:34:51.829Z,17.82
2022-08-16T14:37:26.252Z,17.87
2022-08-16T14:39:59.316Z,17.90
2022-08-16T14:42:28.862Z,17.90
2022-08-16T14:45:00.845Z,17.87
2022-08-16T14:47:34.895Z,17.84
2022-08-16T14:50:05.721Z,17.82
2022-08-16T14:55:24.095Z,17.78
2022-08-16T14:57:52.889Z,17.81
2022-08-16T15:00:33.109Z,17.83
2022-08-16T15:03:06.877Z,17.88
2022-08-16T15:05:40.254Z,17.96
2022-08-16T15:08:09.341Z,18.05
2022-08-16T15:10:39.164Z,18.13
2022-08-16T15:13:30.350Z,18.25
2022-08-16T15:16:02.560Z,18.36
2022-08-16T15:18:37.253Z,18.47
2022-08-16T15:21:29.777Z,18.59
2022-08-16T15:24:00.147Z,18.71
2022-08-16T15:26:44.800Z,18.80
2022-08-16T15:29:16.567Z,18.92
2022-08-16T15:32:00.910Z,19.04
2022-08-16T15:34:33.824Z,19.18
2022-08-16T15:37:02.690Z,19.31
2022-08-16T15:39:40.183Z,19.40
2022-08-16T15:42:36.333Z,19.48
2022-08-16T15:45:11.458Z,19.64
2022-08-16T15:47:41.253Z,19.77
2022-08-16T15:50:28.889Z,19.94
2022-08-16T15:52:58.426Z,20.12
2022-08-16T15:55:37.313Z,20.29
2022-08-16T15:58:35.681Z,20.41
2022-08-16T16:04:10.027Z,20.73
2022-08-16T16:07:11.764Z,20.90
2022-08-16T16:10:04.952Z,21.03
2022-08-16T16:12:54.209Z,21.14
2022-08-16T16:15:29.481Z,21.25
2022-08-16T16:18:09.376Z,21.35
2022-08-16T16:27:05.708Z,21.78
2022-08-16T16:30:33.331Z,21.96
2022-08-16T16:33:03.277Z,22.06
2022-08-16T16:36:38.852Z,22.28
2022-08-16T16:43:04.395Z,22.99
2022-08-16T16:49:07.040Z,23.33
2022-08-16T16:52:06.977Z,23.54
2022-08-16T16:55:03.008Z,23.86
2022-08-16T17:01:09.239Z,24.32
2022-08-16T17:04:13.149Z,24.48
2022-08-16T17:07:36.161Z,24.66
2022-08-16T17:10:09.302Z,24.81
2022-08-16T17:15:36.608Z,24.90
2022-08-16T17:19:17.396Z,24.97
2022-08-16T17:22:06.475Z,24.78
2022-08-16T17:25:07.366Z,24.92
2022-08-16T17:30:45.562Z,25.46
2022-08-16T17:33:17.262Z,25.52
2022-08-16T17:36:04.397Z,25.76
2022-08-16T17:38:43.902Z,26.00
2022-08-16T17:41:15.013Z,26.27
2022-08-16T17:43:48.500Z,26.41
2022-08-16T17:46:41.148Z,26.57
2022-08-16T17:49:06.573Z,26.69
2022-08-16T17:51:35.144Z,26.85
2022-08-16T17:54:04.435Z,26.93
2022-08-16T17:59:40.940Z,27.22
2022-08-16T18:05:01.725Z,27.35
2022-08-16T18:10:06.173Z,27.18
2022-08-16T18:12:54.978Z,26.97
2022-08-16T18:22:04.826Z,26.36
2022-08-16T18:24:39.545Z,26.40
2022-08-16T18:27:37.501Z,26.41
2022-08-16T18:33:43.373Z,26.38
2022-08-16T18:36:41.339Z,26.38
2022-08-16T18:42:41.244Z,26.51
2022-08-16T18:45:10.266Z,26.48
2022-08-16T18:47:38.992Z,26.55
2022-08-16T18:53:40.002Z,27.23
2022-08-16T18:56:11.371Z,27.69
2022-08-16T18:58:40.251Z,28.10
2022-08-16T19:01:46.277Z,28.43
2022-08-16T19:14:41.772Z,28.93
2022-08-16T19:20:44.455Z,28.28
2022-08-16T19:26:46.152Z,27.64
2022-08-16T19:29:21.885Z,27.53
2022-08-16T19:40:45.920Z,27.06
2022-08-16T19:43:40.512Z,26.95
2022-08-16T19:51:55.875Z,26.87
2022-08-16T20:24:40.201Z,29.47
2022-08-16T20:46:39.688Z,28.80
2022-08-16T20:53:45.389Z,28.94
2022-08-16T21:06:41.379Z,29.51
2022-08-16T21:13:17.743Z,30.46
2022-08-16T21:15:46.595Z,30.63
2022-08-16T21:18:20.701Z,30.75
2022-08-16T21:21:16.413Z,30.95
2022-08-16T21:30:25.063Z,31.18
2022-08-16T21:38:11.348Z,31.34
2022-08-16T21:47:24.283Z,31.31
2022-08-16T21:56:19.910Z,30.64
2022-08-16T22:06:23.462Z,30.50
2022-08-16T22:09:19.200Z,30.47
2022-08-16T22:12:18.031Z,30.38
2022-08-16T22:18:18.026Z,30.24
2022-08-16T22:21:20.152Z,30.15
2022-08-16T22:24:19.401Z,30.03
2022-08-16T22:27:20.097Z,29.92
2022-08-16T22:29:48.679Z,29.86
2022-08-16T22:32:17.753Z,29.94
2022-08-16T22:34:46.809Z,29.92
2022-08-16T22:37:15.691Z,29.96
2022-08-16T22:39:47.611Z,29.96
2022-08-16T22:42:19.064Z,29.99
2022-08-16T22:47:26.753Z,29.97
2022-08-16T22:50:26.025Z,29.94
2022-08-16T23:00:28.038Z,29.72
2022-08-16T23:06:05.178Z,29.52
2022-08-16T23:08:52.874Z,29.50
2022-08-16T23:23:28.602Z,29.35
2022-08-16T23:27:22.972Z,29.38
2022-08-16T23:30:53.837Z,29.37
